sensor_id;sensor_type;location;lat;lon;timestamp;pressure;altitude;pressure_sealevel;temperature;humidity
21357;BME280;10836;53.068;18.234;2023-07-22T00:00:49;100483.94;;;15.88;100.00
21357;BME280;10836;53.068;18.234;2023-07-22T00:03:35;100488.44;;;15.84;100.00
21357;BME280;10836;53.068;18.234;2023-07-22T00:06:03;100479.50;;;15.79;100.00
21357;BME280;10836;53.068;18.234;2023-07-22T00:08:36;100487.06;;;15.73;100.00
21357;BME280;10836;53.068;18.234;2023-07-22T00:11:04;100485.69;;;15.62;100.00
21357;BME280;10836;53.068;18.234;2023-07-22T00:13:32;100496.06;;;15.65;100.00
21357;BME280;10836;53.068;18.234;2023-07-22T00:16:00;100486.69;;;15.66;100.00
21357;BME280;10836;53.068;18.234;2023-07-22T00:18:28;100481.56;;;15.73;100.00
21357;BME280;10836;53.068;18.234;2023-07-22T00:20:55;100484.44;;;15.68;100.00
21357;BME280;10836;53.068;18.234;2023-07-22T00:23:22;100486.06;;;15.69;100.00
21357;BME280;10836;53.068;18.234;2023-07-22T00:25:49;100497.69;;;15.66;100.00
21357;BME280;10836;53.068;18.234;2023-07-22T00:28:16;100489.75;;;15.64;100.00
21357;BME280;10836;53.068;18.234;2023-07-22T00:30:43;100497.34;;;15.59;100.00
21357;BME280;10836;53.068;18.234;2023-07-22T00:33:10;100497.50;;;15.62;100.00
21357;BME280;10836;53.068;18.234;2023-07-22T00:35:37;100493.06;;;15.53;100.00
21357;BME280;10836;53.068;18.234;2023-07-22T00:38:04;100483.91;;;15.44;100.00
21357;BME280;10836;53.068;18.234;2023-07-22T00:40:31;100478.41;;;15.44;100.00
21357;BME280;10836;53.068;18.234;2023-07-22T00:42:59;100485.03;;;15.43;100.00
21357;BME280;10836;53.068;18.234;2023-07-22T00:45:26;100489.16;;;15.54;100.00
21357;BME280;10836;53.068;18.234;2023-07-22T00:47:53;100484.47;;;15.54;100.00
21357;BME280;10836;53.068;18.234;2023-07-22T00:50:21;100481.84;;;15.49;100.00
21357;BME280;10836;53.068;18.234;2023-07-22T00:52:48;100480.03;;;15.45;100.00
21357;BME280;10836;53.068;18.234;2023-07-22T00:55:15;100474.53;;;15.45;100.00
21357;BME280;10836;53.068;18.234;2023-07-22T00:57:42;100468.00;;;15.41;100.00
21357;BME280;10836;53.068;18.234;2023-07-22T01:00:09;100468.00;;;15.41;100.00
21357;BME280;10836;53.068;18.234;2023-07-22T01:02:40;100470.22;;;15.52;100.00
21357;BME280;10836;53.068;18.234;2023-07-22T01:05:08;100472.06;;;15.57;100.00
21357;BME280;10836;53.068;18.234;2023-07-22T01:07:37;100470.84;;;15.49;100.00
21357;BME280;10836;53.068;18.234;2023-07-22T01:10:05;100465.19;;;15.32;100.00
21357;BME280;10836;53.068;18.234;2023-07-22T01:12:33;100463.78;;;15.21;100.00
21357;BME280;10836;53.068;18.234;2023-07-22T01:15:00;100458.47;;;15.24;100.00
21357;BME280;10836;53.068;18.234;2023-07-22T01:17:28;100456.50;;;15.39;100.00
21357;BME280;10836;53.068;18.234;2023-07-22T01:19:56;100459.84;;;15.49;100.00
21357;BME280;10836;53.068;18.234;2023-07-22T01:22:23;100449.13;;;15.48;100.00
21357;BME280;10836;53.068;18.234;2023-07-22T01:24:50;100460.25;;;15.43;100.00
21357;BME280;10836;53.068;18.234;2023-07-22T01:27:17;100455.16;;;15.50;100.00
21357;BME280;10836;53.068;18.234;2023-07-22T01:29:44;100445.75;;;15.51;100.00
21357;BME280;10836;53.068;18.234;2023-07-22T01:32:11;100442.88;;;15.56;100.00
21357;BME280;10836;53.068;18.234;2023-07-22T01:34:38;100445.38;;;15.44;100.00
21357;BME280;10836;53.068;18.234;2023-07-22T01:37:06;100448.47;;;15.28;100.00
21357;BME280;10836;53.068;18.234;2023-07-22T01:39:33;100446.66;;;15.24;100.00
21357;BME280;10836;53.068;18.234;2023-07-22T01:42:01;100451.13;;;15.34;100.00
21357;BME280;10836;53.068;18.234;2023-07-22T01:44:28;100457.25;;;15.30;100.00
21357;BME280;10836;53.068;18.234;2023-07-22T01:46:55;100450.72;;;15.26;100.00
21357;BME280;10836;53.068;18.234;2023-07-22T01:49:22;100450.22;;;15.24;100.00
21357;BME280;10836;53.068;18.234;2023-07-22T01:51:51;100456.22;;;15.26;100.00
21357;BME280;10836;53.068;18.234;2023-07-22T01:54:19;100452.75;;;15.35;100.00
21357;BME280;10836;53.068;18.234;2023-07-22T01:56:46;100456.22;;;15.26;100.00
21357;BME280;10836;53.068;18.234;2023-07-22T01:59:13;100457.47;;;15.20;100.00
21357;BME280;10836;53.068;18.234;2023-07-22T02:01:40;100445.72;;;15.28;100.00
21357;BME280;10836;53.068;18.234;2023-07-22T02:04:07;100440.13;;;15.34;100.00
21357;BME280;10836;53.068;18.234;2023-07-22T02:06:34;100429.31;;;15.37;100.00
21357;BME280;10836;53.068;18.234;2023-07-22T02:09:01;100431.78;;;15.25;100.00
21357;BME280;10836;53.068;18.234;2023-07-22T02:11:35;100430.97;;;15.24;100.00
21357;BME280;10836;53.068;18.234;2023-07-22T02:14:02;100438.59;;;15.27;100.00
21357;BME280;10836;53.068;18.234;2023-07-22T02:16:35;100444.19;;;15.36;100.00
21357;BME280;10836;53.068;18.234;2023-07-22T02:19:03;100437.88;;;15.36;100.00
21357;BME280;10836;53.068;18.234;2023-07-22T02:21:38;100444.19;;;15.36;100.00
21357;BME280;10836;53.068;18.234;2023-07-22T02:24:05;100448.88;;;15.36;100.00
21357;BME280;10836;53.068;18.234;2023-07-22T02:26:32;100444.84;;;15.19;100.00
21357;BME280;10836;53.068;18.234;2023-07-22T02:28:59;100448.97;;;15.08;100.00
21357;BME280;10836;53.068;18.234;2023-07-22T02:31:26;100440.66;;;14.86;100.00
21357;BME280;10836;53.068;18.234;2023-07-22T02:33:53;100443.31;;;14.91;100.00
21357;BME280;10836;53.068;18.234;2023-07-22T02:36:20;100444.63;;;14.93;100.00
21357;BME280;10836;53.068;18.234;2023-07-22T02:38:47;100449.41;;;14.88;100.00
21357;BME280;10836;53.068;18.234;2023-07-22T02:41:14;100446.97;;;14.86;100.00
21357;BME280;10836;53.068;18.234;2023-07-22T02:43:41;100453.09;;;14.83;100.00
21357;BME280;10836;53.068;18.234;2023-07-22T02:46:08;100449.25;;;14.71;100.00
21357;BME280;10836;53.068;18.234;2023-07-22T02:48:35;100450.69;;;14.54;100.00
21357;BME280;10836;53.068;18.234;2023-07-22T02:51:08;100443.56;;;14.53;100.00
21357;BME280;10836;53.068;18.234;2023-07-22T02:53:36;100446.19;;;14.58;100.00
21357;BME280;10836;53.068;18.234;2023-07-22T02:56:06;100438.25;;;14.71;100.00
21357;BME280;10836;53.068;18.234;2023-07-22T02:58:37;100444.53;;;14.85;100.00
21357;BME280;10836;53.068;18.234;2023-07-22T03:01:05;100450.63;;;14.95;100.00
21357;BME280;10836;53.068;18.234;2023-07-22T03:03:36;100450.44;;;14.92;100.00
21357;BME280;10836;53.068;18.234;2023-07-22T03:06:03;100465.72;;;14.84;100.00
21357;BME280;10836;53.068;18.234;2023-07-22T03:08:31;100457.34;;;14.89;100.00
21357;BME280;10836;53.068;18.234;2023-07-22T03:10:58;100462.66;;;14.86;100.00
21357;BME280;10836;53.068;18.234;2023-07-22T03:13:25;100470.00;;;14.77;100.00
21357;BME280;10836;53.068;18.234;2023-07-22T03:15:57;100464.72;;;14.67;100.00
21357;BME280;10836;53.068;18.234;2023-07-22T03:18:24;100469.63;;;14.70;100.00
21357;BME280;10836;53.068;18.234;2023-07-22T03:20:51;100465.13;;;14.46;100.00
21357;BME280;10836;53.068;18.234;2023-07-22T03:23:18;100467.06;;;14.59;100.00
21357;BME280;10836;53.068;18.234;2023-07-22T03:25:47;100464.72;;;14.67;100.00
21357;BME280;10836;53.068;18.234;2023-07-22T03:28:14;100470.00;;;14.77;100.00
21357;BME280;10836;53.068;18.234;2023-07-22T03:30:41;100467.69;;;14.70;100.00
21357;BME280;10836;53.068;18.234;2023-07-22T03:33:09;100466.56;;;14.71;100.00
21357;BME280;10836;53.068;18.234;2023-07-22T03:35:37;100461.84;;;14.85;100.00
21357;BME280;10836;53.068;18.234;2023-07-22T03:38:06;100474.34;;;15.05;100.00
21357;BME280;10836;53.068;18.234;2023-07-22T03:40:33;100464.06;;;14.97;100.00
21357;BME280;10836;53.068;18.234;2023-07-22T03:43:01;100464.69;;;14.94;100.00
21357;BME280;10836;53.068;18.234;2023-07-22T03:45:28;100464.47;;;15.04;100.00
21357;BME280;10836;53.068;18.234;2023-07-22T03:47:58;100465.38;;;15.13;100.00
21357;BME280;10836;53.068;18.234;2023-07-22T03:50:27;100461.72;;;14.90;100.00
21357;BME280;10836;53.068;18.234;2023-07-22T03:52:53;100466.00;;;14.83;100.00
21357;BME280;10836;53.068;18.234;2023-07-22T03:55:21;100471.81;;;14.95;100.00
21357;BME280;10836;53.068;18.234;2023-07-22T03:57:48;100463.47;;;14.86;100.00
21357;BME280;10836;53.068;18.234;2023-07-22T04:00:15;100475.28;;;14.87;100.00
21357;BME280;10836;53.068;18.234;2023-07-22T04:02:42;100467.94;;;14.96;100.00
21357;BME280;10836;53.068;18.234;2023-07-22T04:05:11;100478.63;;;14.84;100.00
21357;BME280;10836;53.068;18.234;2023-07-22T04:07:38;100480.25;;;14.98;100.00
21357;BME280;10836;53.068;18.234;2023-07-22T04:10:06;100475.47;;;15.04;100.00
21357;BME280;10836;53.068;18.234;2023-07-22T04:12:33;100470.38;;;14.97;100.00
21357;BME280;10836;53.068;18.234;2023-07-22T04:15:00;100474.34;;;15.05;100.00
21357;BME280;10836;53.068;18.234;2023-07-22T04:17:28;100478.41;;;15.08;100.00
21357;BME280;10836;53.068;18.234;2023-07-22T04:19:55;100472.34;;;15.19;100.00
21357;BME280;10836;53.068;18.234;2023-07-22T04:22:22;100477.84;;;15.19;100.00
21357;BME280;10836;53.068;18.234;2023-07-22T04:24:50;100479.38;;;15.25;100.00
21357;BME280;10836;53.068;18.234;2023-07-22T04:27:19;100487.63;;;15.25;100.00
21357;BME280;10836;53.068;18.234;2023-07-22T04:29:46;100485.78;;;15.21;100.00
21357;BME280;10836;53.068;18.234;2023-07-22T04:32:13;100488.47;;;15.12;100.00
21357;BME280;10836;53.068;18.234;2023-07-22T04:34:41;100491.78;;;14.87;100.00
21357;BME280;10836;53.068;18.234;2023-07-22T04:37:07;100490.34;;;14.76;100.00
21357;BME280;10836;53.068;18.234;2023-07-22T04:39:34;100487.19;;;14.82;100.00
21357;BME280;10836;53.068;18.234;2023-07-22T04:42:02;100494.19;;;15.02;100.00
21357;BME280;10836;53.068;18.234;2023-07-22T04:44:29;100492.78;;;14.91;100.00
21357;BME280;10836;53.068;18.234;2023-07-22T04:46:56;100488.72;;;14.88;100.00
21357;BME280;10836;53.068;18.234;2023-07-22T04:49:23;100484.03;;;14.89;100.00
21357;BME280;10836;53.068;18.234;2023-07-22T04:51:49;100498.91;;;14.88;100.00
21357;BME280;10836;53.068;18.234;2023-07-22T04:54:17;100498.09;;;14.74;100.00
21357;BME280;10836;53.068;18.234;2023-07-22T04:56:45;100497.09;;;14.70;100.00
21357;BME280;10836;53.068;18.234;2023-07-22T04:59:12;100498.91;;;14.88;100.00
21357;BME280;10836;53.068;18.234;2023-07-22T05:01:41;100499.28;;;15.09;100.00
21357;BME280;10836;53.068;18.234;2023-07-22T05:04:08;100507.84;;;15.07;100.00
21357;BME280;10836;53.068;18.234;2023-07-22T05:06:35;100499.50;;;15.12;100.00
21357;BME280;10836;53.068;18.234;2023-07-22T05:09:03;100497.16;;;15.42;100.00
21357;BME280;10836;53.068;18.234;2023-07-22T05:11:30;100500.09;;;15.59;100.00
21357;BME280;10836;53.068;18.234;2023-07-22T05:13:57;100501.56;;;15.65;100.00
21357;BME280;10836;53.068;18.234;2023-07-22T05:16:24;100504.91;;;15.76;100.00
21357;BME280;10836;53.068;18.234;2023-07-22T05:18:52;100500.91;;;15.82;100.00
21357;BME280;10836;53.068;18.234;2023-07-22T05:21:19;100503.09;;;15.93;100.00
21357;BME280;10836;53.068;18.234;2023-07-22T05:23:46;100494.88;;;16.02;100.00
21357;BME280;10836;53.068;18.234;2023-07-22T05:26:13;100498.91;;;16.27;100.00
21357;BME280;10836;53.068;18.234;2023-07-22T05:28:40;100492.25;;;16.28;100.00
21357;BME280;10836;53.068;18.234;2023-07-22T05:31:07;100493.78;;;16.43;100.00
21357;BME280;10836;53.068;18.234;2023-07-22T05:33:34;100488.44;;;16.46;99.75
21357;BME280;10836;53.068;18.234;2023-07-22T05:36:02;100486.84;;;16.45;100.00
21357;BME280;10836;53.068;18.234;2023-07-22T05:38:29;100484.91;;;16.54;100.00
21357;BME280;10836;53.068;18.234;2023-07-22T05:40:58;100485.00;;;16.72;100.00
21357;BME280;10836;53.068;18.234;2023-07-22T05:43:25;100486.00;;;16.93;97.59
21357;BME280;10836;53.068;18.234;2023-07-22T05:45:51;100491.69;;;16.96;96.28
21357;BME280;10836;53.068;18.234;2023-07-22T05:48:18;100489.91;;;16.92;96.61
21357;BME280;10836;53.068;18.234;2023-07-22T05:50:45;100486.66;;;16.90;98.37
21357;BME280;10836;53.068;18.234;2023-07-22T05:53:12;100488.03;;;17.18;96.54
21357;BME280;10836;53.068;18.234;2023-07-22T05:55:39;100481.56;;;17.32;95.84
21357;BME280;10836;53.068;18.234;2023-07-22T05:58:06;100489.03;;;17.31;95.44
21357;BME280;10836;53.068;18.234;2023-07-22T06:00:35;100478.94;;;17.26;95.78
21357;BME280;10836;53.068;18.234;2023-07-22T06:03:02;100483.00;;;17.29;95.02
21357;BME280;10836;53.068;18.234;2023-07-22T06:05:29;100490.28;;;17.34;94.64
21357;BME280;10836;53.068;18.234;2023-07-22T06:07:56;100490.81;;;17.70;93.11
21357;BME280;10836;53.068;18.234;2023-07-22T06:10:24;100486.63;;;18.28;90.44
21357;BME280;10836;53.068;18.234;2023-07-22T06:12:52;100483.47;;;18.85;85.21
21357;BME280;10836;53.068;18.234;2023-07-22T06:15:19;100497.84;;;19.28;83.65
21357;BME280;10836;53.068;18.234;2023-07-22T06:17:46;100494.47;;;20.31;77.63
21357;BME280;10836;53.068;18.234;2023-07-22T06:20:13;100494.38;;;20.51;77.12
21357;BME280;10836;53.068;18.234;2023-07-22T06:22:40;100489.78;;;20.55;74.11
21357;BME280;10836;53.068;18.234;2023-07-22T06:25:08;100488.78;;;19.19;80.03
21357;BME280;10836;53.068;18.234;2023-07-22T06:27:35;100485.72;;;20.08;77.08
21357;BME280;10836;53.068;18.234;2023-07-22T06:30:03;100493.56;;;20.06;79.07
21357;BME280;10836;53.068;18.234;2023-07-22T06:32:30;100493.88;;;21.35;70.81
21357;BME280;10836;53.068;18.234;2023-07-22T06:34:57;100476.59;;;22.56;63.90
21357;BME280;10836;53.068;18.234;2023-07-22T06:37:24;100485.84;;;22.61;64.14
21357;BME280;10836;53.068;18.234;2023-07-22T06:39:51;100478.72;;;23.10;60.45
21357;BME280;10836;53.068;18.234;2023-07-22T06:42:18;100487.41;;;23.44;57.95
21357;BME280;10836;53.068;18.234;2023-07-22T06:44:45;100478.75;;;22.16;59.67
21357;BME280;10836;53.068;18.234;2023-07-22T06:47:12;100494.50;;;22.12;61.12
21357;BME280;10836;53.068;18.234;2023-07-22T06:49:39;100494.00;;;22.53;58.91
21357;BME280;10836;53.068;18.234;2023-07-22T06:52:11;100492.09;;;21.82;59.39
21357;BME280;10836;53.068;18.234;2023-07-22T06:54:38;100480.97;;;21.14;62.13
21357;BME280;10836;53.068;18.234;2023-07-22T06:57:05;100489.31;;;20.66;66.15
21357;BME280;10836;53.068;18.234;2023-07-22T06:59:35;100495.72;;;20.21;66.23
21357;BME280;10836;53.068;18.234;2023-07-22T07:02:03;100498.44;;;20.09;67.18
21357;BME280;10836;53.068;18.234;2023-07-22T07:04:31;100504.31;;;20.52;64.92
21357;BME280;10836;53.068;18.234;2023-07-22T07:06:58;100497.06;;;20.15;67.14
21357;BME280;10836;53.068;18.234;2023-07-22T07:09:26;100496.03;;;20.77;66.09
21357;BME280;10836;53.068;18.234;2023-07-22T07:11:53;100493.44;;;21.20;63.16
21357;BME280;10836;53.068;18.234;2023-07-22T07:14:23;100497.22;;;21.40;62.46
21357;BME280;10836;53.068;18.234;2023-07-22T07:16:51;100498.38;;;21.51;60.21
21357;BME280;10836;53.068;18.234;2023-07-22T07:19:18;100501.72;;;21.45;60.64
21357;BME280;10836;53.068;18.234;2023-07-22T07:21:45;100512.69;;;20.77;62.55
21357;BME280;10836;53.068;18.234;2023-07-22T07:24:12;100505.78;;;21.75;60.80
21357;BME280;10836;53.068;18.234;2023-07-22T07:26:39;100499.91;;;22.05;59.18
21357;BME280;10836;53.068;18.234;2023-07-22T07:29:06;100498.66;;;22.18;57.22
21357;BME280;10836;53.068;18.234;2023-07-22T07:31:33;100509.69;;;22.14;58.07
21357;BME280;10836;53.068;18.234;2023-07-22T07:34:00;100507.91;;;21.66;57.85
21357;BME280;10836;53.068;18.234;2023-07-22T07:36:28;100513.53;;;21.82;55.81
21357;BME280;10836;53.068;18.234;2023-07-22T07:38:55;100517.16;;;21.70;57.58
21357;BME280;10836;53.068;18.234;2023-07-22T07:41:22;100518.97;;;21.78;55.31
21357;BME280;10836;53.068;18.234;2023-07-22T07:43:49;100512.97;;;21.76;54.43
21357;BME280;10836;53.068;18.234;2023-07-22T07:46:18;100516.91;;;21.75;54.66
21357;BME280;10836;53.068;18.234;2023-07-22T07:48:49;100518.28;;;21.81;54.06
21357;BME280;10836;53.068;18.234;2023-07-22T07:51:18;100516.63;;;21.92;54.99
21357;BME280;10836;53.068;18.234;2023-07-22T07:53:46;100515.03;;;21.79;53.73
21357;BME280;10836;53.068;18.234;2023-07-22T07:56:18;100522.53;;;21.63;53.39
21357;BME280;10836;53.068;18.234;2023-07-22T07:58:46;100522.53;;;21.63;55.79
21357;BME280;10836;53.068;18.234;2023-07-22T08:01:14;100522.25;;;21.28;55.78
21357;BME280;10836;53.068;18.234;2023-07-22T08:03:41;100527.09;;;21.71;56.63
21357;BME280;10836;53.068;18.234;2023-07-22T08:06:10;100522.91;;;22.33;54.26
21357;BME280;10836;53.068;18.234;2023-07-22T08:08:38;100528.56;;;23.15;51.96
21357;BME280;10836;53.068;18.234;2023-07-22T08:11:09;100528.38;;;23.78;49.90
21357;BME280;10836;53.068;18.234;2023-07-22T08:13:37;100539.38;;;23.91;49.14
21357;BME280;10836;53.068;18.234;2023-07-22T08:16:05;100544.47;;;22.68;50.72
21357;BME280;10836;53.068;18.234;2023-07-22T08:18:33;100532.69;;;22.27;53.53
21357;BME280;10836;53.068;18.234;2023-07-22T08:21:05;100532.63;;;22.39;54.21
21357;BME280;10836;53.068;18.234;2023-07-22T08:23:34;100540.09;;;22.82;52.54
21357;BME280;10836;53.068;18.234;2023-07-22T08:26:02;100540.38;;;22.93;51.51
21357;BME280;10836;53.068;18.234;2023-07-22T08:28:31;100540.59;;;23.19;51.82
21357;BME280;10836;53.068;18.234;2023-07-22T08:30:58;100549.50;;;22.46;51.61
21357;BME280;10836;53.068;18.234;2023-07-22T08:33:27;100544.66;;;22.75;52.91
21357;BME280;10836;53.068;18.234;2023-07-22T08:36:08;100544.53;;;23.34;51.37
21357;BME280;10836;53.068;18.234;2023-07-22T08:38:35;100549.94;;;23.62;50.79
21357;BME280;10836;53.068;18.234;2023-07-22T08:41:02;100552.91;;;23.18;50.53
21357;BME280;10836;53.068;18.234;2023-07-22T08:43:29;100554.16;;;22.42;53.27
21357;BME280;10836;53.068;18.234;2023-07-22T08:46:02;100554.53;;;23.19;52.95
21357;BME280;10836;53.068;18.234;2023-07-22T08:48:31;100550.53;;;23.36;49.75
21357;BME280;10836;53.068;18.234;2023-07-22T08:51:06;100556.78;;;23.14;50.99
21357;BME280;10836;53.068;18.234;2023-07-22T08:53:33;100566.25;;;24.18;49.11
21357;BME280;10836;53.068;18.234;2023-07-22T08:56:01;100565.31;;;24.52;49.09
21357;BME280;10836;53.068;18.234;2023-07-22T08:58:29;100571.16;;;23.51;49.23
21357;BME280;10836;53.068;18.234;2023-07-22T09:00:58;100569.44;;;23.11;49.33
21357;BME280;10836;53.068;18.234;2023-07-22T09:03:25;100570.50;;;23.22;50.97
21357;BME280;10836;53.068;18.234;2023-07-22T09:05:52;100566.59;;;22.92;52.20
21357;BME280;10836;53.068;18.234;2023-07-22T09:08:19;100574.19;;;21.92;53.69
21357;BME280;10836;53.068;18.234;2023-07-22T09:10:48;100578.09;;;21.63;54.98
21357;BME280;10836;53.068;18.234;2023-07-22T09:13:15;100571.19;;;21.33;58.19
21357;BME280;10836;53.068;18.234;2023-07-22T09:15:44;100583.44;;;21.96;56.07
21357;BME280;10836;53.068;18.234;2023-07-22T09:18:11;100575.59;;;22.42;54.72
21357;BME280;10836;53.068;18.234;2023-07-22T09:20:38;100575.72;;;23.24;53.09
21357;BME280;10836;53.068;18.234;2023-07-22T09:23:05;100573.28;;;23.93;51.05
21357;BME280;10836;53.068;18.234;2023-07-22T09:25:42;100566.16;;;23.76;50.41
21357;BME280;10836;53.068;18.234;2023-07-22T09:28:09;100577.63;;;22.29;53.83
21357;BME280;10836;53.068;18.234;2023-07-22T09:30:38;100581.59;;;22.28;54.77
21357;BME280;10836;53.068;18.234;2023-07-22T09:33:08;100581.28;;;22.61;56.21
21357;BME280;10836;53.068;18.234;2023-07-22T09:35:49;100579.69;;;23.23;53.19
21357;BME280;10836;53.068;18.234;2023-07-22T09:38:24;100595.03;;;23.33;53.01
21357;BME280;10836;53.068;18.234;2023-07-22T09:40:52;100571.59;;;23.02;53.60
21357;BME280;10836;53.068;18.234;2023-07-22T09:43:22;100577.03;;;22.95;52.21
21357;BME280;10836;53.068;18.234;2023-07-22T09:45:50;100594.63;;;22.12;54.62
21357;BME280;10836;53.068;18.234;2023-07-22T09:48:17;100589.94;;;21.36;58.26
21357;BME280;10836;53.068;18.234;2023-07-22T09:50:44;100592.47;;;21.65;59.70
21357;BME280;10836;53.068;18.234;2023-07-22T09:53:15;100608.41;;;20.71;63.86
21357;BME280;10836;53.068;18.234;2023-07-22T09:55:44;100611.78;;;20.43;66.48
21357;BME280;10836;53.068;18.234;2023-07-22T09:58:11;100610.94;;;20.10;68.15
21357;BME280;10836;53.068;18.234;2023-07-22T10:00:47;100616.88;;;20.41;67.92
21357;BME280;10836;53.068;18.234;2023-07-22T10:03:15;100613.50;;;20.81;66.84
21357;BME280;10836;53.068;18.234;2023-07-22T10:05:44;100601.38;;;21.99;64.45
21357;BME280;10836;53.068;18.234;2023-07-22T10:08:15;100602.84;;;21.68;61.73
21357;BME280;10836;53.068;18.234;2023-07-22T10:10:45;100619.91;;;21.18;62.50
21357;BME280;10836;53.068;18.234;2023-07-22T10:13:12;100622.66;;;21.67;61.19
21357;BME280;10836;53.068;18.234;2023-07-22T10:15:40;100621.44;;;22.04;59.95
21357;BME280;10836;53.068;18.234;2023-07-22T10:18:08;100622.41;;;20.41;66.80
21357;BME280;10836;53.068;18.234;2023-07-22T10:20:38;100627.78;;;21.52;66.58
21357;BME280;10836;53.068;18.234;2023-07-22T10:23:07;100632.56;;;22.04;63.14
21357;BME280;10836;53.068;18.234;2023-07-22T10:25:36;100630.13;;;22.31;60.39
21357;BME280;10836;53.068;18.234;2023-07-22T10:28:05;100639.16;;;22.55;60.76
21357;BME280;10836;53.068;18.234;2023-07-22T10:30:33;100641.16;;;22.83;58.73
21357;BME280;10836;53.068;18.234;2023-07-22T10:33:01;100630.84;;;22.28;60.23
21357;BME280;10836;53.068;18.234;2023-07-22T10:38:08;100640.28;;;22.67;54.96
21357;BME280;10836;53.068;18.234;2023-07-22T10:40:52;100636.75;;;22.82;53.31
21357;BME280;10836;53.068;18.234;2023-07-22T10:43:31;100637.53;;;22.98;54.48
21357;BME280;10836;53.068;18.234;2023-07-22T10:46:05;100646.28;;;22.69;52.88
21357;BME280;10836;53.068;18.234;2023-07-22T10:48:35;100636.63;;;22.35;54.21
21357;BME280;10836;53.068;18.234;2023-07-22T10:53:40;100641.50;;;23.29;51.05
21357;BME280;10836;53.068;18.234;2023-07-22T10:56:16;100655.88;;;23.31;47.17
21357;BME280;10836;53.068;18.234;2023-07-22T11:11:58;100647.72;;;23.38;44.52
21357;BME280;10836;53.068;18.234;2023-07-22T11:14:28;100649.59;;;23.84;44.41
21357;BME280;10836;53.068;18.234;2023-07-22T11:17:00;100655.44;;;24.53;44.38
21357;BME280;10836;53.068;18.234;2023-07-22T11:19:35;100653.91;;;24.56;43.21
21357;BME280;10836;53.068;18.234;2023-07-22T11:22:04;100662.06;;;23.91;43.28
21357;BME280;10836;53.068;18.234;2023-07-22T11:24:34;100650.94;;;23.91;44.43
21357;BME280;10836;53.068;18.234;2023-07-22T11:27:07;100646.22;;;23.95;44.08
21357;BME280;10836;53.068;18.234;2023-07-22T11:29:35;100643.94;;;24.35;43.19
21357;BME280;10836;53.068;18.234;2023-07-22T11:32:03;100637.41;;;23.93;43.66
21357;BME280;10836;53.068;18.234;2023-07-22T11:34:32;100652.94;;;24.09;43.54
21357;BME280;10836;53.068;18.234;2023-07-22T11:36:59;100649.78;;;24.49;43.21
21357;BME280;10836;53.068;18.234;2023-07-22T11:39:27;100648.94;;;25.33;41.52
21357;BME280;10836;53.068;18.234;2023-07-22T11:41:54;100646.50;;;24.86;40.59
21357;BME280;10836;53.068;18.234;2023-07-22T11:44:25;100643.88;;;23.97;43.67
21357;BME280;10836;53.068;18.234;2023-07-22T11:49:28;100648.69;;;23.30;44.02
21357;BME280;10836;53.068;18.234;2023-07-22T11:52:03;100661.09;;;23.16;42.50
21357;BME280;10836;53.068;18.234;2023-07-22T11:54:32;100650.13;;;23.55;43.38
21357;BME280;10836;53.068;18.234;2023-07-22T11:57:20;100648.75;;;24.19;43.58
21357;BME280;10836;53.068;18.234;2023-07-22T11:59:49;100658.69;;;24.55;42.17
21357;BME280;10836;53.068;18.234;2023-07-22T12:02:20;100651.81;;;24.72;43.20
21357;BME280;10836;53.068;18.234;2023-07-22T12:04:56;100652.44;;;24.42;41.99
21357;BME280;10836;53.068;18.234;2023-07-22T12:07:27;100652.16;;;24.47;41.28
21357;BME280;10836;53.068;18.234;2023-07-22T12:09:57;100645.59;;;23.66;43.52
21357;BME280;10836;53.068;18.234;2023-07-22T12:12:41;100648.69;;;23.61;41.95
21357;BME280;10836;53.068;18.234;2023-07-22T12:15:19;100650.56;;;23.57;43.67
21357;BME280;10836;53.068;18.234;2023-07-22T12:20:32;100652.47;;;22.90;44.37
21357;BME280;10836;53.068;18.234;2023-07-22T12:23:00;100656.00;;;22.75;44.54
21357;BME280;10836;53.068;18.234;2023-07-22T12:25:27;100659.38;;;22.80;45.35
21357;BME280;10836;53.068;18.234;2023-07-22T12:27:55;100672.84;;;22.50;45.47
21357;BME280;10836;53.068;18.234;2023-07-22T12:30:21;100662.97;;;22.25;45.46
21357;BME280;10836;53.068;18.234;2023-07-22T12:32:50;100663.00;;;22.01;45.43
21357;BME280;10836;53.068;18.234;2023-07-22T12:35:18;100662.06;;;22.49;45.36
21357;BME280;10836;53.068;18.234;2023-07-22T12:37:46;100652.03;;;23.19;42.57
21357;BME280;10836;53.068;18.234;2023-07-22T12:40:13;100644.63;;;23.94;42.14
21357;BME280;10836;53.068;18.234;2023-07-22T12:42:40;100657.09;;;24.96;39.62
21357;BME280;10836;53.068;18.234;2023-07-22T12:45:08;100659.56;;;25.01;38.39
21357;BME280;10836;53.068;18.234;2023-07-22T12:47:36;100654.94;;;24.67;37.52
21357;BME280;10836;53.068;18.234;2023-07-22T12:50:05;100661.09;;;23.83;37.81
21357;BME280;10836;53.068;18.234;2023-07-22T12:52:35;100652.63;;;23.95;38.71
21357;BME280;10836;53.068;18.234;2023-07-22T12:55:02;100661.31;;;24.29;38.77
21357;BME280;10836;53.068;18.234;2023-07-22T12:57:29;100656.47;;;24.64;38.48
21357;BME280;10836;53.068;18.234;2023-07-22T12:59:56;100655.16;;;24.39;37.25
21357;BME280;10836;53.068;18.234;2023-07-22T13:02:23;100664.41;;;24.43;39.12
21357;BME280;10836;53.068;18.234;2023-07-22T13:04:49;100656.91;;;24.47;39.37